createdAt,value
2019-04-21T00:01:57.898Z,35.77
2019-04-21T00:07:31.386Z,31.87
2019-04-21T00:17:00.632Z,24.17
2019-04-21T00:22:05.919Z,23.17
2019-04-21T00:27:11.149Z,22.13
2019-04-21T00:32:06.698Z,22.27
2019-04-21T00:37:03.083Z,17.00
2019-04-21T00:42:12.867Z,19.30
2019-04-21T00:47:04.129Z,18.87
2019-04-21T00:52:22.102Z,18.83
2019-04-21T00:57:17.966Z,22.90
2019-04-21T01:02:14.324Z,20.50
2019-04-21T01:07:13.240Z,21.37
2019-04-21T01:12:13.733Z,27.93
2019-04-21T01:17:16.546Z,23.53
2019-04-21T01:21:47.617Z,21.63
2019-04-21T01:26:56.795Z,19.73
2019-04-21T01:32:13.511Z,17.47
2019-04-21T01:37:01.480Z,20.07
2019-04-21T01:42:03.272Z,18.60
2019-04-21T01:46:58.461Z,21.70
2019-04-21T01:52:19.123Z,18.53
2019-04-21T01:57:07.495Z,18.87
2019-04-21T02:02:08.696Z,17.47
2019-04-21T02:07:03.172Z,20.60
2019-04-21T02:12:08.745Z,20.57
2019-04-21T02:17:10.332Z,19.60
2019-04-21T02:21:56.699Z,16.50
2019-04-21T02:27:04.950Z,17.43
2019-04-21T02:32:10.424Z,18.37
2019-04-21T02:37:27.202Z,16.90
2019-04-21T02:42:15.697Z,16.50
2019-04-21T02:46:54.704Z,16.70
2019-04-21T02:52:14.293Z,16.93
2019-04-21T02:57:09.598Z,20.37
2019-04-21T03:07:25.445Z,17.90
2019-04-21T03:12:20.104Z,16.00
2019-04-21T03:17:32.239Z,17.23
2019-04-21T03:22:20.113Z,19.80
2019-04-21T03:33:04.981Z,15.10
2019-04-21T03:37:25.496Z,17.30
2019-04-21T03:42:29.932Z,12.67
2019-04-21T03:47:22.940Z,15.33
2019-04-21T03:57:19.497Z,14.20
2019-04-21T04:02:22.981Z,13.53
2019-04-21T04:07:44.064Z,13.13
2019-04-21T04:12:34.284Z,13.13
2019-04-21T04:32:28.593Z,12.77
2019-04-21T04:37:32.630Z,15.93
2019-04-21T04:52:34.179Z,14.90
2019-04-21T04:57:33.765Z,14.17
2019-04-21T05:02:37.743Z,17.60
2019-04-21T05:12:25.156Z,17.50
2019-04-21T05:17:30.867Z,14.87
2019-04-21T05:22:22.201Z,15.47
2019-04-21T05:27:25.627Z,19.37
2019-04-21T05:32:43.315Z,21.27
2019-04-21T05:37:35.017Z,17.73
2019-04-21T05:42:34.203Z,14.57
2019-04-21T05:47:39.616Z,14.90
2019-04-21T05:52:32.981Z,14.13
2019-04-21T05:57:42.644Z,13.57
2019-04-21T06:02:40.045Z,11.87
2019-04-21T06:07:33.496Z,10.77
2019-04-21T06:12:38.254Z,8.93
2019-04-21T06:17:36.225Z,9.80
2019-04-21T06:22:34.408Z,8.10
2019-04-21T06:27:32.480Z,9.90
2019-04-21T06:32:47.925Z,9.80
2019-04-21T06:42:35.457Z,9.60
2019-04-21T06:47:36.161Z,10.00
2019-04-21T06:57:29.534Z,9.27
2019-04-21T07:07:21.799Z,7.93
2019-04-21T07:12:24.424Z,8.83
2019-04-21T07:22:24.494Z,7.33
2019-04-21T07:27:23.938Z,7.63
2019-04-21T07:32:21.518Z,8.60
2019-04-21T07:37:28.146Z,8.47
2019-04-21T07:42:19.269Z,7.93
2019-04-21T07:47:22.809Z,7.93
2019-04-21T07:52:34.445Z,7.47
2019-04-21T07:57:36.684Z,7.13
2019-04-21T08:02:29.405Z,6.73
2019-04-21T08:07:41.527Z,7.17
2019-04-21T08:12:24.325Z,7.57
2019-04-21T08:17:30.289Z,8.10
2019-04-21T08:22:34.912Z,6.53
2019-04-21T08:27:35.133Z,8.83
2019-04-21T08:32:39.511Z,8.87
2019-04-21T08:37:29.619Z,7.07
2019-04-21T08:42:25.691Z,8.83
2019-04-21T08:47:25.584Z,7.60
2019-04-21T08:52:37.131Z,8.77
2019-04-21T08:57:37.699Z,7.27
2019-04-21T09:02:37.292Z,7.37
2019-04-21T09:07:32.143Z,7.13
2019-04-21T09:12:29.085Z,6.17
2019-04-21T09:17:20.635Z,7.30
2019-04-21T09:22:24.443Z,5.47
2019-04-21T09:27:25.765Z,7.03
2019-04-21T09:32:14.613Z,8.77
2019-04-21T09:37:19.166Z,6.60
2019-04-21T09:42:06.551Z,7.00
2019-04-21T09:47:05.602Z,7.80
2019-04-21T09:52:05.977Z,8.03
2019-04-21T09:57:07.548Z,6.60
2019-04-21T10:02:08.439Z,6.23
2019-04-21T10:07:00.696Z,6.33
2019-04-21T10:11:58.061Z,6.67
2019-04-21T10:17:15.024Z,5.17
2019-04-21T10:22:12.646Z,7.23
2019-04-21T10:27:29.467Z,6.40
2019-04-21T10:32:26.598Z,7.57
2019-04-21T10:37:34.588Z,7.83
2019-04-21T10:42:23.554Z,6.40
2019-04-21T10:47:20.799Z,6.80
2019-04-21T10:52:27.880Z,6.17
2019-04-21T10:57:28.831Z,6.37
2019-04-21T11:02:43.291Z,6.43
2019-04-21T11:07:57.591Z,7.27
2019-04-21T11:12:43.197Z,6.27
2019-04-21T11:17:43.449Z,6.97
2019-04-21T11:22:40.120Z,4.37
2019-04-21T11:27:37.618Z,6.40
2019-04-21T11:32:35.065Z,5.47
2019-04-21T11:37:34.515Z,5.63
2019-04-21T11:42:33.679Z,4.70
2019-04-21T11:47:32.621Z,5.63
2019-04-21T11:52:29.638Z,5.53
2019-04-21T11:57:30.746Z,4.07
2019-04-21T12:02:25.790Z,5.70
2019-04-21T12:07:22.969Z,4.70
2019-04-21T12:12:23.277Z,5.07
2019-04-21T12:17:20.640Z,4.40
2019-04-21T12:22:23.144Z,4.23
2019-04-21T12:27:16.553Z,4.70
2019-04-21T12:32:33.848Z,3.57
2019-04-21T12:37:31.119Z,6.67
2019-04-21T12:42:28.122Z,5.37
2019-04-21T12:47:25.857Z,4.93
2019-04-21T12:52:24.013Z,4.40
2019-04-21T12:57:21.448Z,4.67
2019-04-21T13:02:19.792Z,4.20
2019-04-21T13:07:17.382Z,4.83
2019-04-21T13:12:15.251Z,3.63
2019-04-21T13:17:13.270Z,3.67
2019-04-21T13:22:10.333Z,4.40
2019-04-21T13:27:08.958Z,3.90
2019-04-21T13:32:08.669Z,4.00
2019-04-21T13:37:05.815Z,4.13
2019-04-21T13:42:24.559Z,4.03
2019-04-21T13:47:16.781Z,3.80
2019-04-21T13:52:15.009Z,3.77
2019-04-21T13:57:12.478Z,4.20
2019-04-21T14:02:11.014Z,3.77
2019-04-21T14:07:08.401Z,3.70
2019-04-21T14:12:07.510Z,3.20
2019-04-21T14:17:05.461Z,3.53
2019-04-21T14:22:05.314Z,4.00
2019-04-21T14:27:02.763Z,3.93
2019-04-21T14:32:00.116Z,3.33
2019-04-21T14:36:57.088Z,4.70
2019-04-21T14:41:54.194Z,3.30
2019-04-21T14:47:05.292Z,2.47
2019-04-21T14:52:05.088Z,3.80
2019-04-21T14:57:03.227Z,4.47
2019-04-21T15:02:00.441Z,4.80
2019-04-21T15:06:57.421Z,4.10
2019-04-21T15:11:54.394Z,2.93
2019-04-21T15:16:51.414Z,7.17
2019-04-21T15:21:48.457Z,9.43
2019-04-21T15:26:46.430Z,10.00
2019-04-21T15:31:44.733Z,11.63
2019-04-21T15:36:43.962Z,3.80
2019-04-21T15:41:41.238Z,3.83
2019-04-21T15:46:39.749Z,4.40
2019-04-21T15:51:38.045Z,3.93
2019-04-21T15:56:38.435Z,3.57
2019-04-21T16:01:46.469Z,3.17
2019-04-21T16:06:43.697Z,4.00
2019-04-21T16:11:42.052Z,4.17
2019-04-21T16:16:41.313Z,5.13
2019-04-21T16:21:41.004Z,6.17
2019-04-21T16:26:38.397Z,4.80
2019-04-21T16:31:36.421Z,4.73
2019-04-21T16:36:33.867Z,5.00
2019-04-21T16:41:32.123Z,4.60
2019-04-21T16:46:29.561Z,7.43
2019-04-21T16:51:28.388Z,10.20
2019-04-21T16:56:27.327Z,10.07
2019-04-21T17:01:30.171Z,4.07
2019-04-21T17:06:29.238Z,8.67
2019-04-21T17:11:31.049Z,3.30
2019-04-21T17:16:49.499Z,4.60
2019-04-21T17:21:25.816Z,6.23
2019-04-21T17:26:23.537Z,4.83
2019-04-21T17:31:22.261Z,4.80
2019-04-21T17:36:21.108Z,4.10
2019-04-21T17:41:27.907Z,33.27
2019-04-21T17:46:24.430Z,44.53
2019-04-21T17:51:19.155Z,13.13
2019-04-21T17:56:41.370Z,8.93
2019-04-21T18:01:40.744Z,9.17
2019-04-21T18:06:45.177Z,7.83
2019-04-21T18:11:46.282Z,5.37
2019-04-21T18:16:33.653Z,9.83
2019-04-21T18:21:49.025Z,7.00
2019-04-21T18:26:50.724Z,8.30
2019-04-21T18:31:48.077Z,6.93
2019-04-21T18:36:48.676Z,6.33
2019-04-21T18:42:05.301Z,6.73
2019-04-21T18:47:12.166Z,4.17
2019-04-21T18:52:02.826Z,3.70
2019-04-21T18:57:05.407Z,2.83
2019-04-21T19:01:59.934Z,3.27
2019-04-21T19:07:13.154Z,6.77
2019-04-21T19:12:24.077Z,5.93
2019-04-21T19:17:56.727Z,12.30
2019-04-21T19:22:09.083Z,7.20
2019-04-21T19:32:14.931Z,4.30
2019-04-21T19:37:00.914Z,11.40
2019-04-21T19:42:07.595Z,10.33
2019-04-21T19:47:10.911Z,8.57
2019-04-21T19:51:57.535Z,8.17
2019-04-21T19:56:49.009Z,5.63
2019-04-21T20:01:48.308Z,6.40
2019-04-21T20:06:57.630Z,7.43
2019-04-21T20:12:02.861Z,7.23
2019-04-21T20:16:57.728Z,6.93
2019-04-21T20:21:43.099Z,7.50
2019-04-21T20:26:44.067Z,7.57
2019-04-21T20:31:56.999Z,6.10
2019-04-21T20:36:56.718Z,5.73
2019-04-21T20:41:49.511Z,6.87
2019-04-21T20:46:51.503Z,8.93
2019-04-21T20:51:59.970Z,7.50
2019-04-21T20:56:51.071Z,7.53
2019-04-21T21:01:48.909Z,7.40
2019-04-21T21:06:47.154Z,8.50
2019-04-21T21:12:05.018Z,10.07
2019-04-21T21:16:50.803Z,9.57
2019-04-21T21:21:44.233Z,10.27
2019-04-21T21:26:52.132Z,8.03
2019-04-21T21:31:41.723Z,6.20
2019-04-21T21:36:43.625Z,6.03
2019-04-21T21:41:31.879Z,7.00
2019-04-21T21:46:43.000Z,9.50
2019-04-21T21:51:41.232Z,8.20
2019-04-21T21:56:22.771Z,4.97
2019-04-21T22:01:21.761Z,6.50
2019-04-21T22:06:23.024Z,5.93
2019-04-21T22:11:17.998Z,6.57
2019-04-21T22:16:17.706Z,5.13
2019-04-21T22:21:34.733Z,6.93
2019-04-21T22:26:13.366Z,4.73
2019-04-21T22:31:15.250Z,6.63
2019-04-21T22:36:23.251Z,5.43
2019-04-21T22:41:19.853Z,6.60
2019-04-21T22:46:07.676Z,5.17
2019-04-21T22:51:10.577Z,6.30
2019-04-21T22:56:12.572Z,4.93
2019-04-21T23:01:06.116Z,7.30
2019-04-21T23:06:10.922Z,4.93
2019-04-21T23:11:06.294Z,6.10
2019-04-21T23:16:03.103Z,5.37
2019-04-21T23:21:15.026Z,6.63
2019-04-21T23:26:21.002Z,5.57
2019-04-21T23:31:22.937Z,6.80
2019-04-21T23:36:03.720Z,5.83
2019-04-21T23:40:59.920Z,5.50
2019-04-21T23:45:54.846Z,5.30
2019-04-21T23:51:01.862Z,4.93
2019-04-21T23:55:51.210Z,4.97
